LSGSLFGJ

Guest
Details From LSGS - Sion
To LFGJ - Dole Tavaux
Flight Number -
Tags generated
Created
Modified
Stats Distance 92 nm / 171 km
Max Altitude 7,400 ft / 2,256 m
Waypoints 3
Social Downloads 0
Likes 0
Share VATSIM

Download

Looking for another format? Having issues loading an existing format? Contact us
Advertisement - Login to hide

Notes

Basic altitude profile: - Ascent Rate: 2500ft/min - Ascent Speed: 250kts - Cruise Altitude: 20000ft - Cruise Speed: 420kts - Descent Rate: 1500ft/min - Descent Speed: 250kts Options: - Use NATs: yes - Use PACOTS: yes - Use low airways: yes - Use high airways: yes

Route

LSGS GALBI LFGJ

ID Type Via Altitude Latitude Longitude Leg Dist Tot Dist Heading (true) Name
O LSGS APT - 0 ft / 0 m 46.21895˚ 7.32409˚ - 0 nm - Sion
GALBI FIX - 7,400 ft / 2,256 m 46.72889˚ 6.14361˚ 57 nm 57 nm 303° / 302° -
O LFGJ APT - 0 ft / 0 m 47.03893˚ 5.42727˚ 34 nm 92 nm 303° / 302° Dole Tavaux

Altitude Profile

Advertisement - Login to hide

LSGS

Details ICAO LSGS (SIR)
Name Sion
Region Switzerland
Timezone Europe/Zurich (UTC+1.0)
Stats Elevation 1,585 ft / 483 m (AMSL)
Location 46.218954° 7.324090°
Runways 2
Magnetic Variation 2.043° E

METAR

LSGS 161650Z 27008KT 250V320 9999 SCT080 02/M01 Q1016

Decode

TAF

Not found

Departure Runways

ID Width Length Bearing (true) Bearing (mag) Surface Threshold Offset Overrun Length
07L 98 ft / 30 m 2,167 ft / 661 m 72.83° 70.79° Grass 0 ft / 0 m 0 ft / 0 m
07R 131 ft / 40 m 6,605 ft / 2,013 m 72.84° 70.80° Asphalt 164 ft / 50 m 627 ft / 191 m
25L 131 ft / 40 m 6,605 ft / 2,013 m 252.86° 250.82° Asphalt 164 ft / 50 m 627 ft / 191 m
25R 98 ft / 30 m 2,167 ft / 661 m 252.83° 250.79° Grass 328 ft / 100 m 0 ft / 0 m

LFGJ

Details ICAO LFGJ (DLE)
Name Dole Tavaux
Region France
Timezone Europe/Paris (UTC+1.0)
Stats Elevation 645 ft / 197 m (AMSL)
Location 47.038933° 5.427265°
Runways 1
Magnetic Variation 1.546° E

METAR

LFGJ 161700Z AUTO 27005KT 9999 FEW029 BKN036 OVC054 03/02 Q1019 TEMPO 2500 SHSN BKN008

Decode

TAF

Not found

Destination Runways

ID Width Length Bearing (true) Bearing (mag) Surface Threshold Offset Overrun Length
05 148 ft / 45 m 7,306 ft / 2,227 m 54.25° 52.70° Asphalt 0 ft / 0 m 0 ft / 0 m
23 148 ft / 45 m 7,306 ft / 2,227 m 234.27° 232.72° Asphalt 0 ft / 0 m 1,214 ft / 370 m

Approach Navaids

Runway Type Ident Frequency Range Bearing (true) Bearing (mag) Slope Elevation
05 Localiser DO 109.35 MHz 18 nm / 33 km 54.27° 52.73° - 646 ft / 197 m (AMSL)
05 Glidescope DO 109.35 MHz 10 nm / 19 km 54.26° 52.72° 3.10° 634 ft / 193 m (AMSL)
05 DME DO 109.35 MHz 18 nm / 33 km - - - 690 ft / 210 m (AMSL)
23 Localiser DO 109.70 MHz 18 nm / 33 km 234.34° 232.79° - 643 ft / 196 m (AMSL)
23 Glidescope DO 109.70 MHz 10 nm / 19 km 234.26° 232.72° 3.00° 643 ft / 196 m (AMSL)